createdAt,value
2023-03-24T00:03:34.382Z,68.22
2023-03-24T00:07:38.284Z,68.28
2023-03-24T00:09:38.640Z,68.6
2023-03-24T00:13:42.028Z,68.03
2023-03-24T00:15:43.477Z,68.26
2023-03-24T00:17:44.624Z,68.86
2023-03-24T00:19:45.717Z,69.28
2023-03-24T00:23:48.104Z,68.89
2023-03-24T00:25:49.484Z,69.75
2023-03-24T00:29:52.589Z,70.02
2023-03-24T00:31:54.260Z,70.25
2023-03-24T00:35:56.815Z,70.82
2023-03-24T00:40:00.288Z,70.35
2023-03-24T00:42:01.614Z,71.05
2023-03-24T00:46:04.178Z,71.26
2023-03-24T00:48:05.649Z,71.32
2023-03-24T00:52:08.157Z,71.29
2023-03-24T00:56:10.049Z,72.68
2023-03-24T00:58:11.586Z,73.1
2023-03-24T01:02:14.373Z,71.89
2023-03-24T01:06:17.377Z,73.11
2023-03-24T01:08:26.575Z,72.7
2023-03-24T01:10:20.053Z,73.14
2023-03-24T01:12:21.776Z,72.72
2023-03-24T01:14:22.771Z,72.61
2023-03-24T01:18:25.557Z,73.38
2023-03-24T01:22:28.422Z,73.47
2023-03-24T01:24:29.867Z,73.73
2023-03-24T01:28:32.610Z,74.02
2023-03-24T01:30:34.328Z,73.97
2023-03-24T01:34:36.385Z,73.95
2023-03-24T01:38:39.594Z,73.92
2023-03-24T01:40:40.661Z,73.9
2023-03-24T01:44:43.298Z,73.68
2023-03-24T01:48:45.726Z,72.61
2023-03-24T01:50:47.048Z,73.09
2023-03-24T01:54:49.150Z,73.5
2023-03-24T01:56:50.561Z,73.98
2023-03-24T02:00:53.007Z,73.61
2023-03-24T02:04:54.786Z,72.61
2023-03-24T02:06:55.784Z,72.1
2023-03-24T02:10:58.030Z,71.53
2023-03-24T02:12:59.541Z,72.03
2023-03-24T02:17:01.897Z,73.75
2023-03-24T02:19:03.225Z,72.48
2023-03-24T02:21:04.807Z,71.87
2023-03-24T02:23:49.852Z,71.32
2023-03-24T02:27:53.380Z,72.59
2023-03-24T02:31:56.812Z,71.37
2023-03-24T02:33:57.910Z,71.59
2023-03-24T02:38:00.963Z,72.25
2023-03-24T02:42:04.233Z,71.56
2023-03-24T02:44:05.730Z,71.78
2023-03-24T02:48:09.955Z,71.75
2023-03-24T02:50:09.526Z,71.59
2023-03-24T02:54:11.610Z,71.77
2023-03-24T02:58:14.817Z,71.86
2023-03-24T03:00:15.751Z,72.08
2023-03-24T03:04:18.546Z,72.13
2023-03-24T03:06:19.477Z,71.76
2023-03-24T03:10:22.841Z,71.82
2023-03-24T03:14:26.118Z,71.71
2023-03-24T03:16:27.331Z,71.92
2023-03-24T03:20:29.980Z,72.52
2023-03-24T03:24:31.931Z,72.85
2023-03-24T03:26:33.826Z,73.25
2023-03-24T03:30:36.176Z,72.75
2023-03-24T03:32:38.044Z,72.42
2023-03-24T03:36:40.686Z,71.94
2023-03-24T03:40:43.713Z,71.3
2023-03-24T03:42:44.679Z,71.77
2023-03-24T03:46:47.405Z,71.84
2023-03-24T03:48:48.617Z,71.48
2023-03-24T03:52:51.140Z,72.37
2023-03-24T03:56:53.708Z,71.77
2023-03-24T03:58:55.011Z,71.04
2023-03-24T04:02:59.335Z,72.05
2023-03-24T04:09:01.995Z,71.12
2023-03-24T04:13:04.615Z,71.51
2023-03-24T04:15:06.291Z,70.6
2023-03-24T04:19:08.889Z,70.56
2023-03-24T04:23:12.797Z,70.85
2023-03-24T04:25:13.356Z,70.3
2023-03-24T04:29:16.281Z,70.6
2023-03-24T04:31:17.025Z,70.57
2023-03-24T04:35:19.478Z,70.83
2023-03-24T04:39:22.437Z,70.05
2023-03-24T04:41:24.135Z,69.53
2023-03-24T04:45:27.017Z,68.87
2023-03-24T04:47:28.834Z,68.54
2023-03-24T04:51:32.113Z,68.89
2023-03-24T04:55:34.006Z,68.69
2023-03-24T04:57:35.482Z,67.91
2023-03-24T05:01:38.103Z,66.86
2023-03-24T05:05:41.102Z,66.88
2023-03-24T05:07:42.025Z,67.13
2023-03-24T05:11:44.603Z,66.9
2023-03-24T05:13:45.775Z,67.1
2023-03-24T05:17:48.829Z,67.69
2023-03-24T05:21:51.432Z,67.78
2023-03-24T05:23:52.449Z,68.13
2023-03-24T05:27:55.531Z,68.97
2023-03-24T05:29:57.346Z,69.04
2023-03-24T05:34:00.207Z,69.41
2023-03-24T05:38:03.227Z,70.37
2023-03-24T05:40:04.309Z,71.14
2023-03-24T05:44:06.718Z,71.93
2023-03-24T05:48:09.371Z,73
2023-03-24T05:50:10.976Z,73.74
2023-03-24T05:54:14.020Z,76.1
2023-03-24T05:56:15.395Z,77.94
2023-03-24T05:58:16.904Z,79.9
2023-03-24T06:00:18.365Z,81.16
2023-03-24T06:04:21.130Z,82.66
2023-03-24T06:06:22.621Z,83.07
2023-03-24T06:10:25.670Z,83.95
2023-03-24T06:12:26.634Z,84.79
2023-03-24T06:16:29.746Z,85.1
2023-03-24T06:20:33.075Z,86.85
2023-03-24T06:22:34.623Z,86.87
2023-03-24T06:26:37.071Z,87.46
2023-03-24T06:28:38.358Z,88.44
2023-03-24T06:32:40.748Z,88.84
2023-03-24T06:36:43.315Z,89.57
2023-03-24T06:38:44.531Z,89.82
2023-03-24T06:42:47.928Z,89.93
2023-03-24T06:46:50.487Z,89.72
2023-03-24T06:48:52.800Z,89.85
2023-03-24T06:52:53.990Z,90.18
2023-03-24T06:54:54.971Z,90.26
2023-03-24T06:58:57.443Z,89.73
2023-03-24T07:03:00.107Z,90.11
2023-03-24T07:05:01.516Z,90.03
2023-03-24T07:09:04.128Z,89.17
2023-03-24T07:11:05.796Z,88.81
2023-03-24T07:15:09.477Z,89.05
2023-03-24T07:19:11.770Z,88.71
2023-03-24T07:21:13.087Z,88.45
2023-03-24T07:25:15.659Z,88.58
2023-03-24T07:29:18.469Z,87.73
2023-03-24T07:31:19.963Z,87.92
2023-03-24T07:35:22.665Z,87.42
2023-03-24T07:37:24.163Z,87.73
2023-03-24T07:41:27.323Z,87.7
2023-03-24T07:45:29.961Z,87.63
2023-03-24T07:47:31.554Z,87.28
2023-03-24T07:51:37.229Z,87.44
2023-03-24T07:53:34.911Z,87.68
2023-03-24T07:57:37.230Z,88.2
2023-03-24T08:01:40.525Z,88.76
2023-03-24T08:03:41.920Z,89.06
2023-03-24T08:07:44.774Z,88.53
2023-03-24T08:11:47.936Z,88.86
2023-03-24T08:13:49.155Z,88.72
2023-03-24T08:17:51.332Z,89.09
2023-03-24T08:20:00.338Z,89.26
2023-03-24T08:21:54.371Z,89.25
2023-03-24T08:23:56.191Z,89.1
2023-03-24T08:27:59.540Z,89.34
2023-03-24T08:30:00.812Z,88.95
2023-03-24T08:34:03.098Z,89.33
2023-03-24T08:36:04.440Z,89.37
2023-03-24T08:40:07.381Z,89.61
2023-03-24T08:44:09.612Z,89.75
2023-03-24T08:46:13.355Z,89.99
2023-03-24T08:50:13.949Z,89.98
2023-03-24T08:56:18.190Z,88.43
2023-03-24T09:00:20.957Z,88.59
2023-03-24T09:02:22.433Z,87.44
2023-03-24T09:06:25.424Z,87.14
2023-03-24T09:11:11.817Z,86.44
2023-03-24T09:13:12.839Z,86.45
2023-03-24T09:17:15.629Z,85.77
2023-03-24T09:21:18.389Z,85.53
2023-03-24T09:23:28.480Z,84.8
2023-03-24T09:27:21.902Z,85.27
2023-03-24T09:29:22.893Z,84.56
2023-03-24T09:33:26.170Z,84.09
2023-03-24T09:37:29.201Z,83.72
2023-03-24T09:39:30.747Z,83.58
2023-03-24T09:43:33.526Z,84.46
2023-03-24T09:47:37.052Z,85.87
2023-03-24T09:49:38.648Z,86.34
2023-03-24T09:53:41.546Z,86.92
2023-03-24T09:55:42.600Z,87.69
2023-03-24T09:59:45.119Z,86.84
2023-03-24T10:03:48.019Z,85.96
2023-03-24T10:05:48.872Z,86.11
2023-03-24T10:09:51.646Z,86.02
2023-03-24T10:11:52.837Z,85.19
2023-03-24T10:15:55.418Z,85.18
2023-03-24T10:19:59.881Z,84.54
2023-03-24T10:21:58.695Z,83.72
2023-03-24T10:26:01.497Z,83.73
2023-03-24T10:28:02.562Z,83.07
2023-03-24T10:32:05.673Z,82.88
2023-03-24T10:36:09.741Z,83.01
2023-03-24T10:38:10.522Z,83.37
2023-03-24T10:42:12.865Z,83.39
2023-03-24T10:44:14.103Z,83.24
2023-03-24T10:48:16.350Z,84.04
2023-03-24T10:52:18.876Z,86.87
2023-03-24T10:54:19.744Z,88.11
2023-03-24T10:58:23.065Z,89
2023-03-24T11:02:26.491Z,88.37
2023-03-24T11:04:27.511Z,87.09
2023-03-24T11:08:31.428Z,86.96
2023-03-24T11:10:32.840Z,86.79
2023-03-24T11:12:34.405Z,86.66
2023-03-24T11:14:35.528Z,86.9
2023-03-24T11:18:37.762Z,88.44
2023-03-24T11:20:38.797Z,89.54
2023-03-24T11:22:40.439Z,90.34
2023-03-24T11:24:42.262Z,90.56
2023-03-24T11:26:43.359Z,90.48
2023-03-24T11:30:46.645Z,89.94
2023-03-24T11:32:47.924Z,89.49
2023-03-24T11:34:49.428Z,89.61
2023-03-24T11:36:50.620Z,89.57
2023-03-24T11:40:53.749Z,89.29
2023-03-24T11:42:55.281Z,89.96
2023-03-24T11:46:57.491Z,89.4
2023-03-24T11:51:00.625Z,89.68
2023-03-24T11:53:02.262Z,88.9
2023-03-24T11:57:04.263Z,89.98
2023-03-24T12:01:06.931Z,91.12
2023-03-24T12:03:08.782Z,91.88
2023-03-24T12:07:10.952Z,91.24
2023-03-24T12:09:12.690Z,91.11
2023-03-24T12:13:25.907Z,89.36
2023-03-24T12:17:18.335Z,87.85
2023-03-24T12:19:19.796Z,87.96
2023-03-24T12:23:24.066Z,88.01
2023-03-24T12:25:26.098Z,86.42
2023-03-24T12:29:28.528Z,85.02
2023-03-24T12:33:31.341Z,86.1
2023-03-24T12:35:32.562Z,84.91
2023-03-24T12:39:35.226Z,85.29
2023-03-24T12:43:37.569Z,84.34
2023-03-24T12:45:39.372Z,84.7
2023-03-24T12:49:42.756Z,83.12
2023-03-24T12:51:44.214Z,83.22
2023-03-24T12:55:47.686Z,85.08
2023-03-24T12:59:50.693Z,88.33
2023-03-24T13:01:52.006Z,88.85
2023-03-24T13:05:58.163Z,88.78
2023-03-24T13:07:56.742Z,89.37
2023-03-24T13:12:00.216Z,87.27
2023-03-24T13:16:03.493Z,87.01
2023-03-24T13:18:05.808Z,87.94
2023-03-24T13:22:07.835Z,85.77
2023-03-24T13:26:10.940Z,87.13
2023-03-24T13:28:12.014Z,86.9
2023-03-24T13:32:14.646Z,84.48
2023-03-24T13:34:15.622Z,84.39
2023-03-24T13:38:18.952Z,85.77
2023-03-24T13:42:21.472Z,84.67
2023-03-24T13:44:23.274Z,85.47
2023-03-24T13:48:25.698Z,86.54
2023-03-24T13:50:27.284Z,85.92
2023-03-24T13:54:29.734Z,86.72
2023-03-24T13:58:33.591Z,87.9
2023-03-24T14:00:35.043Z,88.11
2023-03-24T14:04:38.389Z,87.39
2023-03-24T14:08:41.734Z,87.42
2023-03-24T14:10:43.215Z,87
2023-03-24T14:14:54.123Z,86.81
2023-03-24T14:16:47.635Z,85.98
2023-03-24T14:20:50.449Z,85.3
2023-03-24T14:24:53.036Z,86.63
2023-03-24T14:26:54.879Z,86.13
2023-03-24T14:30:58.528Z,84.55
2023-03-24T14:32:59.551Z,84.2
2023-03-24T14:37:02.055Z,83.36
2023-03-24T14:41:04.758Z,82.01
2023-03-24T14:43:05.686Z,80.57
2023-03-24T14:47:08.572Z,80.31
2023-03-24T14:53:12.629Z,81.69
2023-03-24T14:57:14.884Z,82.23
2023-03-24T14:59:16.259Z,83.06
2023-03-24T15:03:18.985Z,83.23
2023-03-24T15:07:21.620Z,83.7
2023-03-24T15:09:22.547Z,83.84
2023-03-24T15:13:25.812Z,83.57
2023-03-24T15:15:27.222Z,83.44
2023-03-24T15:19:29.461Z,83.31
2023-03-24T15:23:32.579Z,84.22
2023-03-24T15:25:34.105Z,84.66
2023-03-24T15:29:36.737Z,84.71
2023-03-24T15:31:39.363Z,84.85
2023-03-24T15:35:40.451Z,85.2
2023-03-24T15:39:43.049Z,85.1
2023-03-24T15:41:44.212Z,85.19
2023-03-24T15:45:48.392Z,85.12
2023-03-24T15:49:49.520Z,84.68
2023-03-24T15:51:50.630Z,84.79
2023-03-24T15:56:37.525Z,84.79
2023-03-24T16:00:39.554Z,84.27
2023-03-24T16:02:40.822Z,84.09
2023-03-24T16:06:43.348Z,83.89
2023-03-24T16:08:44.676Z,83.81
2023-03-24T16:12:48.342Z,83.72
2023-03-24T16:16:51.529Z,83.6
2023-03-24T16:18:52.708Z,83.52
2023-03-24T16:22:55.081Z,83.14
2023-03-24T16:28:58.456Z,83.55
2023-03-24T16:33:01.755Z,83.51
2023-03-24T16:35:03.249Z,83.8
2023-03-24T16:39:05.218Z,83.76
2023-03-24T16:43:07.820Z,82.91
2023-03-24T16:45:09.704Z,82.32
2023-03-24T16:49:12.436Z,82.47
2023-03-24T16:51:14.186Z,82.44
2023-03-24T16:55:17.093Z,82.93
2023-03-24T16:59:20.141Z,83.13
2023-03-24T17:01:21.700Z,82.78
2023-03-24T17:05:24.489Z,81.95
2023-03-24T17:07:25.410Z,81.87
2023-03-24T17:11:28.554Z,81.44
2023-03-24T17:15:31.171Z,82.05
2023-03-24T17:17:32.912Z,82.86
2023-03-24T17:21:36.270Z,83.67
2023-03-24T17:25:39.266Z,84.43
2023-03-24T17:27:40.948Z,84.88
2023-03-24T17:31:44.070Z,85.72
2023-03-24T17:33:45.251Z,85.83
2023-03-24T17:37:48.384Z,86.18
2023-03-24T17:41:51.478Z,86.47
2023-03-24T17:43:54.403Z,86.89
2023-03-24T17:47:55.976Z,87.24
2023-03-24T17:49:57.680Z,87.77
2023-03-24T17:54:00.310Z,88.64
2023-03-24T17:56:02.030Z,89.11
2023-03-24T17:58:03.922Z,89.23
2023-03-24T18:00:05.756Z,89.22
2023-03-24T18:04:08.387Z,89.57
2023-03-24T18:08:11.169Z,90.2
2023-03-24T18:10:13.062Z,90.28
2023-03-24T18:14:15.703Z,89.87
2023-03-24T18:16:21.158Z,89.39
2023-03-24T18:20:20.206Z,89.34
2023-03-24T18:24:23.205Z,89.77
2023-03-24T18:26:25.129Z,89.5
2023-03-24T18:30:27.662Z,89.65
2023-03-24T18:32:29.314Z,89.97
2023-03-24T18:36:32.212Z,90.33
2023-03-24T18:40:34.818Z,90.15
2023-03-24T18:42:36.388Z,90.1
2023-03-24T18:46:38.843Z,90.73
2023-03-24T18:50:42.102Z,90.17
2023-03-24T18:52:43.225Z,89.87
2023-03-24T18:56:45.722Z,89.77
2023-03-24T18:58:47.678Z,89.91
2023-03-24T19:00:49.249Z,89.58
2023-03-24T19:02:50.537Z,89.18
2023-03-24T19:06:53.067Z,89.35
2023-03-24T19:08:54.559Z,89.25
2023-03-24T19:10:56.345Z,89.15
2023-03-24T19:12:58.277Z,89.25
2023-03-24T19:14:59.608Z,89.22
2023-03-24T19:19:02.010Z,89.06
2023-03-24T19:23:04.640Z,88.98
2023-03-24T19:25:05.948Z,89.23
2023-03-24T19:29:08.891Z,88.86
2023-03-24T19:31:10.079Z,88.79
2023-03-24T19:35:13.168Z,88.22
2023-03-24T19:39:15.870Z,88.65
2023-03-24T19:41:16.776Z,88.63
2023-03-24T19:45:19.718Z,87.96
2023-03-24T19:49:21.720Z,87.73
2023-03-24T19:51:23.061Z,87.48
2023-03-24T19:55:26.001Z,87.89
2023-03-24T19:57:26.813Z,88.23
2023-03-24T20:01:29.423Z,88.67
2023-03-24T20:05:32.108Z,88.85
2023-03-24T20:07:33.412Z,88.67
2023-03-24T20:11:37.216Z,88.69
2023-03-24T20:17:41.303Z,89.31
2023-03-24T20:21:43.488Z,89.47
2023-03-24T20:23:45.079Z,89.71
2023-03-24T20:27:47.953Z,89.43
2023-03-24T20:29:49.018Z,89.2
2023-03-24T20:33:52.649Z,89.2
2023-03-24T20:37:55.152Z,88.8
2023-03-24T20:39:57.315Z,88.83
2023-03-24T20:43:58.749Z,88.47
2023-03-24T20:48:02.132Z,87.95
2023-03-24T20:50:03.620Z,87.98
2023-03-24T20:54:06.380Z,87.64
2023-03-24T20:56:07.734Z,87.67
2023-03-24T21:00:10.813Z,87.48
2023-03-24T21:04:14.156Z,87.32
2023-03-24T21:06:16.010Z,87.07
2023-03-24T21:10:19.151Z,86.73
2023-03-24T21:14:21.871Z,86.14
2023-03-24T21:16:23.005Z,85.77
2023-03-24T21:20:25.933Z,84.99
2023-03-24T21:22:26.995Z,85.8
2023-03-24T21:24:28.623Z,86.28
2023-03-24T21:26:30.255Z,86.58
2023-03-24T21:30:32.905Z,86.47
2023-03-24T21:32:34.433Z,86.64
2023-03-24T21:36:37.231Z,87.21
2023-03-24T21:38:38.632Z,88.04
2023-03-24T21:42:41.719Z,90.25
2023-03-24T21:46:44.637Z,91.25
2023-03-24T21:48:45.775Z,91.9
2023-03-24T21:52:49.148Z,92.54
2023-03-24T21:56:52.565Z,93.08
2023-03-24T21:58:53.455Z,93.05
2023-03-24T22:02:56.111Z,92.74
2023-03-24T22:04:57.370Z,92.93
2023-03-24T22:06:58.471Z,92.63
2023-03-24T22:09:00.117Z,92.01
2023-03-24T22:13:03.215Z,92.45
2023-03-24T22:15:04.993Z,90.94
2023-03-24T22:17:06.902Z,90.85
2023-03-24T22:19:08.245Z,91.39
2023-03-24T22:21:09.922Z,92.07
2023-03-24T22:25:12.350Z,91.86
2023-03-24T22:27:13.563Z,92.23
2023-03-24T22:29:15.255Z,91.23
2023-03-24T22:31:16.692Z,90.88
2023-03-24T22:35:20.036Z,91.25
2023-03-24T22:37:21.997Z,91.34
2023-03-24T22:40:06.780Z,91.22
2023-03-24T22:42:07.807Z,91.37
2023-03-24T22:46:11.354Z,92.12
2023-03-24T22:50:13.241Z,92.14
2023-03-24T22:52:14.837Z,91.54
2023-03-24T22:56:17.968Z,92.08
2023-03-24T22:58:19.627Z,91.5
2023-03-24T23:02:22.865Z,92.04
2023-03-24T23:06:25.504Z,92.17
2023-03-24T23:08:26.832Z,92.35
2023-03-24T23:12:29.214Z,92.66
2023-03-24T23:14:30.414Z,92.79
2023-03-24T23:18:33.774Z,92.82
2023-03-24T23:22:36.632Z,92.59
2023-03-24T23:24:38.554Z,92.63
2023-03-24T23:28:41.818Z,93.25
2023-03-24T23:32:44.320Z,93.28
2023-03-24T23:34:45.965Z,93.33
2023-03-24T23:38:49.091Z,93.41
2023-03-24T23:40:50.063Z,93.4
2023-03-24T23:44:52.879Z,93.4
2023-03-24T23:48:56.348Z,93.62
2023-03-24T23:50:57.165Z,93.93
2023-03-24T23:55:00.456Z,94.06
2023-03-24T23:57:01.688Z,93.02
